sensor_id;sensor_type;location;lat;lon;timestamp;P1;durP1;ratioP1;P2;durP2;ratioP2
30247;SDS011;17063;50.892;4.702;2023-05-10T00:00:39;9.83;;;5.53;;
30247;SDS011;17063;50.892;4.702;2023-05-10T00:03:07;12.00;;;5.07;;
30247;SDS011;17063;50.892;4.702;2023-05-10T00:05:35;6.93;;;4.57;;
30247;SDS011;17063;50.892;4.702;2023-05-10T00:08:02;8.57;;;5.00;;
30247;SDS011;17063;50.892;4.702;2023-05-10T00:10:29;8.27;;;4.77;;
30247;SDS011;17063;50.892;4.702;2023-05-10T00:12:56;9.03;;;4.47;;
30247;SDS011;17063;50.892;4.702;2023-05-10T00:15:23;9.17;;;4.93;;
30247;SDS011;17063;50.892;4.702;2023-05-10T00:17:50;11.13;;;4.80;;
30247;SDS011;17063;50.892;4.702;2023-05-10T00:20:17;12.53;;;4.83;;
30247;SDS011;17063;50.892;4.702;2023-05-10T00:22:44;8.33;;;4.90;;
30247;SDS011;17063;50.892;4.702;2023-05-10T00:25:11;11.00;;;5.03;;
30247;SDS011;17063;50.892;4.702;2023-05-10T00:27:38;8.57;;;4.53;;
30247;SDS011;17063;50.892;4.702;2023-05-10T00:30:05;12.40;;;5.23;;
30247;SDS011;17063;50.892;4.702;2023-05-10T00:32:34;13.67;;;5.40;;
30247;SDS011;17063;50.892;4.702;2023-05-10T00:35:01;13.70;;;5.37;;
30247;SDS011;17063;50.892;4.702;2023-05-10T00:37:28;12.60;;;5.60;;
30247;SDS011;17063;50.892;4.702;2023-05-10T00:39:55;11.80;;;5.70;;
30247;SDS011;17063;50.892;4.702;2023-05-10T00:42:22;12.07;;;5.77;;
30247;SDS011;17063;50.892;4.702;2023-05-10T00:44:52;7.40;;;5.40;;
30247;SDS011;17063;50.892;4.702;2023-05-10T00:47:19;13.90;;;5.93;;
30247;SDS011;17063;50.892;4.702;2023-05-10T00:49:46;13.97;;;5.90;;
30247;SDS011;17063;50.892;4.702;2023-05-10T00:52:13;10.73;;;5.63;;
30247;SDS011;17063;50.892;4.702;2023-05-10T00:54:40;12.73;;;6.10;;
30247;SDS011;17063;50.892;4.702;2023-05-10T00:57:07;15.60;;;6.37;;
30247;SDS011;17063;50.892;4.702;2023-05-10T00:59:34;11.83;;;6.27;;
30247;SDS011;17063;50.892;4.702;2023-05-10T01:02:01;14.60;;;6.73;;
30247;SDS011;17063;50.892;4.702;2023-05-10T01:04:28;10.50;;;5.67;;
30247;SDS011;17063;50.892;4.702;2023-05-10T01:06:57;14.17;;;6.70;;
30247;SDS011;17063;50.892;4.702;2023-05-10T01:09:24;9.23;;;6.13;;
30247;SDS011;17063;50.892;4.702;2023-05-10T01:11:52;12.37;;;5.83;;
30247;SDS011;17063;50.892;4.702;2023-05-10T01:14:21;9.27;;;6.03;;
30247;SDS011;17063;50.892;4.702;2023-05-10T01:16:49;8.57;;;5.63;;
30247;SDS011;17063;50.892;4.702;2023-05-10T01:19:26;11.83;;;6.37;;
30247;SDS011;17063;50.892;4.702;2023-05-10T01:24:47;12.80;;;6.30;;
30247;SDS011;17063;50.892;4.702;2023-05-10T01:27:19;16.23;;;6.73;;
30247;SDS011;17063;50.892;4.702;2023-05-10T01:35:32;15.13;;;6.97;;
30247;SDS011;17063;50.892;4.702;2023-05-10T01:38:26;14.23;;;6.90;;
30247;SDS011;17063;50.892;4.702;2023-05-10T01:43:45;12.63;;;6.87;;
30247;SDS011;17063;50.892;4.702;2023-05-10T01:47:01;19.13;;;7.47;;
30247;SDS011;17063;50.892;4.702;2023-05-10T01:50:09;18.00;;;7.20;;
30247;SDS011;17063;50.892;4.702;2023-05-10T01:52:32;12.93;;;7.57;;
30247;SDS011;17063;50.892;4.702;2023-05-10T01:55:03;14.63;;;7.53;;
30247;SDS011;17063;50.892;4.702;2023-05-10T01:57:35;14.60;;;7.80;;
30247;SDS011;17063;50.892;4.702;2023-05-10T02:00:04;16.63;;;8.33;;
30247;SDS011;17063;50.892;4.702;2023-05-10T02:02:40;14.13;;;8.43;;
30247;SDS011;17063;50.892;4.702;2023-05-10T02:05:10;18.20;;;8.50;;
30247;SDS011;17063;50.892;4.702;2023-05-10T02:07:39;15.57;;;8.33;;
30247;SDS011;17063;50.892;4.702;2023-05-10T02:10:07;16.70;;;8.40;;
30247;SDS011;17063;50.892;4.702;2023-05-10T02:12:41;15.00;;;8.30;;
30247;SDS011;17063;50.892;4.702;2023-05-10T02:15:10;14.57;;;7.97;;
30247;SDS011;17063;50.892;4.702;2023-05-10T02:17:38;18.67;;;8.77;;
30247;SDS011;17063;50.892;4.702;2023-05-10T02:20:06;18.20;;;8.50;;
30247;SDS011;17063;50.892;4.702;2023-05-10T02:22:35;16.80;;;8.20;;
30247;SDS011;17063;50.892;4.702;2023-05-10T02:25:02;13.27;;;8.47;;
30247;SDS011;17063;50.892;4.702;2023-05-10T02:27:30;13.47;;;8.47;;
30247;SDS011;17063;50.892;4.702;2023-05-10T02:29:57;18.53;;;8.53;;
30247;SDS011;17063;50.892;4.702;2023-05-10T02:32:24;14.17;;;8.03;;
30247;SDS011;17063;50.892;4.702;2023-05-10T02:34:53;18.63;;;8.20;;
30247;SDS011;17063;50.892;4.702;2023-05-10T02:37:21;13.90;;;8.70;;
30247;SDS011;17063;50.892;4.702;2023-05-10T02:39:49;15.33;;;8.83;;
30247;SDS011;17063;50.892;4.702;2023-05-10T02:42:17;16.30;;;8.63;;
30247;SDS011;17063;50.892;4.702;2023-05-10T02:44:47;14.83;;;9.47;;
30247;SDS011;17063;50.892;4.702;2023-05-10T02:47:14;14.80;;;8.80;;
30247;SDS011;17063;50.892;4.702;2023-05-10T02:49:42;16.27;;;9.27;;
30247;SDS011;17063;50.892;4.702;2023-05-10T02:52:09;14.90;;;8.97;;
30247;SDS011;17063;50.892;4.702;2023-05-10T02:54:39;12.00;;;8.27;;
30247;SDS011;17063;50.892;4.702;2023-05-10T02:57:14;16.63;;;9.10;;
30247;SDS011;17063;50.892;4.702;2023-05-10T02:59:45;19.07;;;9.47;;
30247;SDS011;17063;50.892;4.702;2023-05-10T03:02:16;13.83;;;8.37;;
30247;SDS011;17063;50.892;4.702;2023-05-10T03:04:48;12.73;;;7.87;;
30247;SDS011;17063;50.892;4.702;2023-05-10T03:07:16;15.37;;;8.17;;
30247;SDS011;17063;50.892;4.702;2023-05-10T03:09:47;18.93;;;9.20;;
30247;SDS011;17063;50.892;4.702;2023-05-10T03:17:30;19.20;;;9.17;;
30247;SDS011;17063;50.892;4.702;2023-05-10T03:20:06;15.30;;;8.97;;
30247;SDS011;17063;50.892;4.702;2023-05-10T03:22:40;16.50;;;8.50;;
30247;SDS011;17063;50.892;4.702;2023-05-10T03:25:13;13.77;;;8.87;;
30247;SDS011;17063;50.892;4.702;2023-05-10T03:27:43;13.43;;;8.53;;
30247;SDS011;17063;50.892;4.702;2023-05-10T03:30:11;19.70;;;8.17;;
30247;SDS011;17063;50.892;4.702;2023-05-10T03:32:40;18.50;;;9.37;;
30247;SDS011;17063;50.892;4.702;2023-05-10T03:35:07;30.53;;;10.40;;
30247;SDS011;17063;50.892;4.702;2023-05-10T03:37:38;22.07;;;9.83;;
30247;SDS011;17063;50.892;4.702;2023-05-10T03:40:06;16.97;;;8.73;;
30247;SDS011;17063;50.892;4.702;2023-05-10T03:42:35;15.43;;;7.53;;
30247;SDS011;17063;50.892;4.702;2023-05-10T03:45:02;11.67;;;5.97;;
30247;SDS011;17063;50.892;4.702;2023-05-10T03:47:29;14.27;;;5.97;;
30247;SDS011;17063;50.892;4.702;2023-05-10T03:49:57;14.03;;;6.63;;
30247;SDS011;17063;50.892;4.702;2023-05-10T03:52:24;17.93;;;7.33;;
30247;SDS011;17063;50.892;4.702;2023-05-10T03:54:51;13.27;;;6.90;;
30247;SDS011;17063;50.892;4.702;2023-05-10T03:57:18;18.77;;;7.00;;
30247;SDS011;17063;50.892;4.702;2023-05-10T03:59:45;13.23;;;7.00;;
30247;SDS011;17063;50.892;4.702;2023-05-10T04:02:12;11.80;;;7.33;;
30247;SDS011;17063;50.892;4.702;2023-05-10T04:04:39;16.00;;;8.50;;
30247;SDS011;17063;50.892;4.702;2023-05-10T04:07:06;15.23;;;8.83;;
30247;SDS011;17063;50.892;4.702;2023-05-10T04:09:33;22.80;;;10.60;;
30247;SDS011;17063;50.892;4.702;2023-05-10T04:12:00;23.57;;;11.17;;
30247;SDS011;17063;50.892;4.702;2023-05-10T04:14:28;17.93;;;10.57;;
30247;SDS011;17063;50.892;4.702;2023-05-10T04:16:55;21.60;;;10.83;;
30247;SDS011;17063;50.892;4.702;2023-05-10T04:19:22;17.67;;;10.50;;
30247;SDS011;17063;50.892;4.702;2023-05-10T04:21:49;24.30;;;11.50;;
30247;SDS011;17063;50.892;4.702;2023-05-10T04:24:16;21.30;;;11.17;;
30247;SDS011;17063;50.892;4.702;2023-05-10T04:26:43;22.67;;;12.10;;
30247;SDS011;17063;50.892;4.702;2023-05-10T04:29:10;21.77;;;11.90;;
30247;SDS011;17063;50.892;4.702;2023-05-10T04:31:36;20.90;;;11.37;;
30247;SDS011;17063;50.892;4.702;2023-05-10T04:34:03;20.23;;;11.43;;
30247;SDS011;17063;50.892;4.702;2023-05-10T04:36:30;17.20;;;10.70;;
30247;SDS011;17063;50.892;4.702;2023-05-10T04:38:58;21.70;;;11.50;;
30247;SDS011;17063;50.892;4.702;2023-05-10T04:41:25;19.43;;;11.60;;
30247;SDS011;17063;50.892;4.702;2023-05-10T04:43:52;22.70;;;11.50;;
30247;SDS011;17063;50.892;4.702;2023-05-10T04:46:19;22.70;;;12.20;;
30247;SDS011;17063;50.892;4.702;2023-05-10T04:48:46;22.63;;;12.67;;
30247;SDS011;17063;50.892;4.702;2023-05-10T04:51:13;22.40;;;11.60;;
30247;SDS011;17063;50.892;4.702;2023-05-10T04:53:39;21.57;;;12.37;;
30247;SDS011;17063;50.892;4.702;2023-05-10T04:56:09;22.27;;;12.70;;
30247;SDS011;17063;50.892;4.702;2023-05-10T04:58:36;23.00;;;13.47;;
30247;SDS011;17063;50.892;4.702;2023-05-10T05:01:06;21.17;;;12.37;;
30247;SDS011;17063;50.892;4.702;2023-05-10T05:03:34;25.27;;;13.57;;
30247;SDS011;17063;50.892;4.702;2023-05-10T05:06:02;24.90;;;12.80;;
30247;SDS011;17063;50.892;4.702;2023-05-10T05:08:29;23.13;;;13.20;;
30247;SDS011;17063;50.892;4.702;2023-05-10T05:10:56;24.07;;;13.20;;
30247;SDS011;17063;50.892;4.702;2023-05-10T05:13:23;23.47;;;13.00;;
30247;SDS011;17063;50.892;4.702;2023-05-10T05:15:50;23.57;;;13.33;;
30247;SDS011;17063;50.892;4.702;2023-05-10T05:18:17;23.03;;;13.37;;
30247;SDS011;17063;50.892;4.702;2023-05-10T05:20:44;22.70;;;13.17;;
30247;SDS011;17063;50.892;4.702;2023-05-10T05:23:12;26.27;;;14.33;;
30247;SDS011;17063;50.892;4.702;2023-05-10T05:25:39;26.63;;;14.50;;
30247;SDS011;17063;50.892;4.702;2023-05-10T05:28:05;29.00;;;14.60;;
30247;SDS011;17063;50.892;4.702;2023-05-10T05:30:33;28.70;;;14.20;;
30247;SDS011;17063;50.892;4.702;2023-05-10T05:32:59;26.90;;;14.73;;
30247;SDS011;17063;50.892;4.702;2023-05-10T05:35:26;19.60;;;12.97;;
30247;SDS011;17063;50.892;4.702;2023-05-10T05:37:53;26.73;;;13.80;;
30247;SDS011;17063;50.892;4.702;2023-05-10T05:40:20;28.00;;;15.07;;
30247;SDS011;17063;50.892;4.702;2023-05-10T05:42:47;24.47;;;14.40;;
30247;SDS011;17063;50.892;4.702;2023-05-10T05:45:14;23.63;;;14.00;;
30247;SDS011;17063;50.892;4.702;2023-05-10T05:47:41;24.60;;;14.53;;
30247;SDS011;17063;50.892;4.702;2023-05-10T05:50:09;23.33;;;13.70;;
30247;SDS011;17063;50.892;4.702;2023-05-10T05:52:36;25.30;;;13.43;;
30247;SDS011;17063;50.892;4.702;2023-05-10T05:55:03;24.47;;;14.47;;
30247;SDS011;17063;50.892;4.702;2023-05-10T05:57:30;23.33;;;13.57;;
30247;SDS011;17063;50.892;4.702;2023-05-10T05:59:57;25.70;;;14.33;;
30247;SDS011;17063;50.892;4.702;2023-05-10T06:02:24;25.77;;;14.00;;
30247;SDS011;17063;50.892;4.702;2023-05-10T06:04:51;23.53;;;14.00;;
30247;SDS011;17063;50.892;4.702;2023-05-10T06:07:17;25.30;;;13.37;;
30247;SDS011;17063;50.892;4.702;2023-05-10T06:09:44;23.57;;;13.17;;
30247;SDS011;17063;50.892;4.702;2023-05-10T06:12:11;26.83;;;15.47;;
30247;SDS011;17063;50.892;4.702;2023-05-10T06:14:38;25.43;;;14.37;;
30247;SDS011;17063;50.892;4.702;2023-05-10T06:17:05;23.40;;;13.50;;
30247;SDS011;17063;50.892;4.702;2023-05-10T06:19:33;23.13;;;12.90;;
30247;SDS011;17063;50.892;4.702;2023-05-10T06:22:00;24.07;;;14.63;;
30247;SDS011;17063;50.892;4.702;2023-05-10T06:24:27;26.00;;;13.80;;
30247;SDS011;17063;50.892;4.702;2023-05-10T06:26:54;25.03;;;14.23;;
30247;SDS011;17063;50.892;4.702;2023-05-10T06:29:21;24.03;;;14.03;;
30247;SDS011;17063;50.892;4.702;2023-05-10T06:31:48;23.77;;;13.90;;
30247;SDS011;17063;50.892;4.702;2023-05-10T06:34:16;22.63;;;13.43;;
30247;SDS011;17063;50.892;4.702;2023-05-10T06:36:43;22.80;;;14.03;;
30247;SDS011;17063;50.892;4.702;2023-05-10T06:39:10;28.33;;;14.57;;
30247;SDS011;17063;50.892;4.702;2023-05-10T06:41:38;29.03;;;14.40;;
30247;SDS011;17063;50.892;4.702;2023-05-10T06:44:06;25.07;;;14.33;;
30247;SDS011;17063;50.892;4.702;2023-05-10T06:46:32;23.83;;;14.00;;
30247;SDS011;17063;50.892;4.702;2023-05-10T06:48:59;28.20;;;14.43;;
30247;SDS011;17063;50.892;4.702;2023-05-10T06:51:26;22.53;;;13.73;;
30247;SDS011;17063;50.892;4.702;2023-05-10T06:53:55;26.53;;;13.97;;
30247;SDS011;17063;50.892;4.702;2023-05-10T06:56:22;24.50;;;13.37;;
30247;SDS011;17063;50.892;4.702;2023-05-10T06:58:49;30.50;;;14.93;;
30247;SDS011;17063;50.892;4.702;2023-05-10T07:01:16;30.60;;;14.50;;
30247;SDS011;17063;50.892;4.702;2023-05-10T07:03:43;24.83;;;14.07;;
30247;SDS011;17063;50.892;4.702;2023-05-10T07:06:09;23.23;;;12.33;;
30247;SDS011;17063;50.892;4.702;2023-05-10T07:08:56;22.57;;;12.23;;
30247;SDS011;17063;50.892;4.702;2023-05-10T07:11:23;18.50;;;9.73;;
30247;SDS011;17063;50.892;4.702;2023-05-10T07:13:50;13.43;;;6.93;;
30247;SDS011;17063;50.892;4.702;2023-05-10T07:16:17;11.33;;;5.87;;
30247;SDS011;17063;50.892;4.702;2023-05-10T07:18:44;7.73;;;5.33;;
30247;SDS011;17063;50.892;4.702;2023-05-10T07:21:11;11.43;;;5.77;;
30247;SDS011;17063;50.892;4.702;2023-05-10T07:23:40;15.57;;;6.40;;
30247;SDS011;17063;50.892;4.702;2023-05-10T07:33:20;9.50;;;5.30;;
30247;SDS011;17063;50.892;4.702;2023-05-10T07:36:26;9.73;;;4.90;;
30247;SDS011;17063;50.892;4.702;2023-05-10T07:43:13;7.67;;;4.23;;
30247;SDS011;17063;50.892;4.702;2023-05-10T07:48:50;7.73;;;3.57;;
30247;SDS011;17063;50.892;4.702;2023-05-10T07:51:21;3.60;;;3.30;;
30247;SDS011;17063;50.892;4.702;2023-05-10T07:53:48;9.77;;;3.60;;
30247;SDS011;17063;50.892;4.702;2023-05-10T07:56:23;10.23;;;4.73;;
30247;SDS011;17063;50.892;4.702;2023-05-10T07:58:56;6.53;;;3.87;;
30247;SDS011;17063;50.892;4.702;2023-05-10T08:05:34;9.03;;;5.70;;
30247;SDS011;17063;50.892;4.702;2023-05-10T08:11:25;10.47;;;6.57;;
30247;SDS011;17063;50.892;4.702;2023-05-10T08:26:18;17.23;;;8.03;;
30247;SDS011;17063;50.892;4.702;2023-05-10T08:29:11;15.27;;;7.67;;
30247;SDS011;17063;50.892;4.702;2023-05-10T08:34:51;11.57;;;7.63;;
30247;SDS011;17063;50.892;4.702;2023-05-10T08:41:13;16.90;;;7.20;;
30247;SDS011;17063;50.892;4.702;2023-05-10T08:44:04;15.77;;;7.03;;
30247;SDS011;17063;50.892;4.702;2023-05-10T08:46:35;14.63;;;7.40;;
30247;SDS011;17063;50.892;4.702;2023-05-10T08:49:16;12.20;;;7.47;;
30247;SDS011;17063;50.892;4.702;2023-05-10T08:52:02;14.83;;;6.97;;
30247;SDS011;17063;50.892;4.702;2023-05-10T08:54:35;12.87;;;6.93;;
30247;SDS011;17063;50.892;4.702;2023-05-10T08:57:04;14.33;;;6.97;;
30247;SDS011;17063;50.892;4.702;2023-05-10T08:59:42;15.10;;;7.30;;
30247;SDS011;17063;50.892;4.702;2023-05-10T09:02:43;13.70;;;6.97;;
30247;SDS011;17063;50.892;4.702;2023-05-10T09:05:12;16.30;;;8.47;;
30247;SDS011;17063;50.892;4.702;2023-05-10T09:07:39;23.17;;;7.80;;
30247;SDS011;17063;50.892;4.702;2023-05-10T09:10:06;11.13;;;6.50;;
30247;SDS011;17063;50.892;4.702;2023-05-10T09:12:33;11.33;;;6.57;;
30247;SDS011;17063;50.892;4.702;2023-05-10T09:15:02;9.20;;;5.77;;
30247;SDS011;17063;50.892;4.702;2023-05-10T09:17:30;23.60;;;7.10;;
30247;SDS011;17063;50.892;4.702;2023-05-10T09:20:01;12.97;;;6.03;;
30247;SDS011;17063;50.892;4.702;2023-05-10T09:22:32;8.60;;;5.40;;
30247;SDS011;17063;50.892;4.702;2023-05-10T09:27:36;14.00;;;6.17;;
30247;SDS011;17063;50.892;4.702;2023-05-10T09:30:04;10.70;;;6.03;;
30247;SDS011;17063;50.892;4.702;2023-05-10T09:35:10;10.10;;;6.00;;
30247;SDS011;17063;50.892;4.702;2023-05-10T09:37:44;10.63;;;5.50;;
30247;SDS011;17063;50.892;4.702;2023-05-10T09:40:14;8.13;;;5.30;;
30247;SDS011;17063;50.892;4.702;2023-05-10T09:42:43;10.47;;;5.53;;
30247;SDS011;17063;50.892;4.702;2023-05-10T09:45:18;8.80;;;5.07;;
30247;SDS011;17063;50.892;4.702;2023-05-10T09:47:45;13.23;;;4.33;;
30247;SDS011;17063;50.892;4.702;2023-05-10T09:50:12;8.83;;;4.07;;
30247;SDS011;17063;50.892;4.702;2023-05-10T09:55:15;6.90;;;4.70;;
30247;SDS011;17063;50.892;4.702;2023-05-10T09:57:43;10.60;;;4.97;;
30247;SDS011;17063;50.892;4.702;2023-05-10T10:00:09;7.63;;;3.90;;
30247;SDS011;17063;50.892;4.702;2023-05-10T10:02:39;6.20;;;3.97;;
30247;SDS011;17063;50.892;4.702;2023-05-10T10:05:07;7.33;;;4.40;;
30247;SDS011;17063;50.892;4.702;2023-05-10T10:07:34;6.63;;;3.97;;
30247;SDS011;17063;50.892;4.702;2023-05-10T10:10:02;6.43;;;4.30;;
30247;SDS011;17063;50.892;4.702;2023-05-10T10:12:30;6.67;;;4.40;;
30247;SDS011;17063;50.892;4.702;2023-05-10T10:14:57;9.77;;;4.20;;
30247;SDS011;17063;50.892;4.702;2023-05-10T10:17:26;6.43;;;4.17;;
30247;SDS011;17063;50.892;4.702;2023-05-10T10:19:54;7.83;;;4.40;;
30247;SDS011;17063;50.892;4.702;2023-05-10T10:22:22;6.83;;;3.90;;
30247;SDS011;17063;50.892;4.702;2023-05-10T10:24:50;6.40;;;3.93;;
30247;SDS011;17063;50.892;4.702;2023-05-10T10:27:28;8.50;;;4.03;;
30247;SDS011;17063;50.892;4.702;2023-05-10T10:35:54;6.13;;;2.93;;
30247;SDS011;17063;50.892;4.702;2023-05-10T10:38:22;5.27;;;3.00;;
30247;SDS011;17063;50.892;4.702;2023-05-10T10:40:49;3.67;;;2.90;;
30247;SDS011;17063;50.892;4.702;2023-05-10T10:43:28;3.00;;;2.67;;
30247;SDS011;17063;50.892;4.702;2023-05-10T10:48:40;3.17;;;2.60;;
30247;SDS011;17063;50.892;4.702;2023-05-10T10:51:07;4.00;;;2.20;;
30247;SDS011;17063;50.892;4.702;2023-05-10T10:53:38;2.60;;;2.00;;
30247;SDS011;17063;50.892;4.702;2023-05-10T10:56:06;2.40;;;2.00;;
30247;SDS011;17063;50.892;4.702;2023-05-10T10:58:38;2.50;;;1.93;;
30247;SDS011;17063;50.892;4.702;2023-05-10T11:01:10;2.60;;;1.87;;
30247;SDS011;17063;50.892;4.702;2023-05-10T11:06:29;2.30;;;1.57;;
30247;SDS011;17063;50.892;4.702;2023-05-10T11:08:58;2.07;;;1.80;;
30247;SDS011;17063;50.892;4.702;2023-05-10T11:11:25;1.53;;;1.43;;
30247;SDS011;17063;50.892;4.702;2023-05-10T11:13:53;2.63;;;1.77;;
30247;SDS011;17063;50.892;4.702;2023-05-10T11:16:20;1.93;;;1.60;;
30247;SDS011;17063;50.892;4.702;2023-05-10T11:21:24;1.53;;;1.43;;
30247;SDS011;17063;50.892;4.702;2023-05-10T11:23:54;3.80;;;1.20;;
30247;SDS011;17063;50.892;4.702;2023-05-10T11:26:23;1.43;;;1.33;;
30247;SDS011;17063;50.892;4.702;2023-05-10T11:28:53;2.77;;;1.30;;
30247;SDS011;17063;50.892;4.702;2023-05-10T11:31:25;2.90;;;1.47;;
30247;SDS011;17063;50.892;4.702;2023-05-10T11:33:54;1.40;;;1.30;;
30247;SDS011;17063;50.892;4.702;2023-05-10T11:36:28;1.40;;;1.30;;
30247;SDS011;17063;50.892;4.702;2023-05-10T11:38:59;1.40;;;1.37;;
30247;SDS011;17063;50.892;4.702;2023-05-10T11:41:27;2.93;;;1.27;;
30247;SDS011;17063;50.892;4.702;2023-05-10T11:43:55;1.43;;;1.20;;
30247;SDS011;17063;50.892;4.702;2023-05-10T11:46:24;1.97;;;1.53;;
30247;SDS011;17063;50.892;4.702;2023-05-10T11:48:52;1.07;;;1.00;;
30247;SDS011;17063;50.892;4.702;2023-05-10T11:51:23;1.43;;;1.30;;
30247;SDS011;17063;50.892;4.702;2023-05-10T11:53:55;1.20;;;1.20;;
30247;SDS011;17063;50.892;4.702;2023-05-10T11:56:23;1.53;;;1.40;;
30247;SDS011;17063;50.892;4.702;2023-05-10T11:58:55;1.97;;;1.53;;
30247;SDS011;17063;50.892;4.702;2023-05-10T12:01:26;1.40;;;1.30;;
30247;SDS011;17063;50.892;4.702;2023-05-10T12:03:55;1.60;;;1.43;;
30247;SDS011;17063;50.892;4.702;2023-05-10T12:06:28;2.03;;;1.87;;
30247;SDS011;17063;50.892;4.702;2023-05-10T12:08:55;1.83;;;1.53;;
30247;SDS011;17063;50.892;4.702;2023-05-10T12:11:26;2.87;;;1.80;;
30247;SDS011;17063;50.892;4.702;2023-05-10T12:13:54;2.30;;;2.07;;
30247;SDS011;17063;50.892;4.702;2023-05-10T12:16:23;3.87;;;2.13;;
30247;SDS011;17063;50.892;4.702;2023-05-10T12:18:53;4.00;;;2.57;;
30247;SDS011;17063;50.892;4.702;2023-05-10T12:21:21;2.40;;;2.20;;
30247;SDS011;17063;50.892;4.702;2023-05-10T12:23:50;2.63;;;2.17;;
30247;SDS011;17063;50.892;4.702;2023-05-10T12:26:17;20.63;;;2.63;;
30247;SDS011;17063;50.892;4.702;2023-05-10T12:28:45;4.30;;;2.67;;
30247;SDS011;17063;50.892;4.702;2023-05-10T12:31:11;2.60;;;2.20;;
30247;SDS011;17063;50.892;4.702;2023-05-10T12:33:39;2.47;;;2.27;;
30247;SDS011;17063;50.892;4.702;2023-05-10T12:36:10;4.83;;;2.37;;
30247;SDS011;17063;50.892;4.702;2023-05-10T12:38:39;4.77;;;2.47;;
30247;SDS011;17063;50.892;4.702;2023-05-10T12:41:11;3.37;;;2.50;;
30247;SDS011;17063;50.892;4.702;2023-05-10T12:43:40;2.70;;;2.50;;
30247;SDS011;17063;50.892;4.702;2023-05-10T12:46:14;2.17;;;1.90;;
30247;SDS011;17063;50.892;4.702;2023-05-10T12:48:43;2.23;;;2.03;;
30247;SDS011;17063;50.892;4.702;2023-05-10T12:51:10;2.47;;;2.27;;
30247;SDS011;17063;50.892;4.702;2023-05-10T12:53:40;2.00;;;1.80;;
30247;SDS011;17063;50.892;4.702;2023-05-10T12:56:11;2.17;;;1.90;;
30247;SDS011;17063;50.892;4.702;2023-05-10T12:58:38;2.13;;;2.00;;
30247;SDS011;17063;50.892;4.702;2023-05-10T13:01:05;3.90;;;1.90;;
30247;SDS011;17063;50.892;4.702;2023-05-10T13:03:32;3.17;;;1.97;;
30247;SDS011;17063;50.892;4.702;2023-05-10T13:05:59;1.87;;;1.60;;
30247;SDS011;17063;50.892;4.702;2023-05-10T13:08:26;1.80;;;1.70;;
30247;SDS011;17063;50.892;4.702;2023-05-10T13:10:56;2.30;;;2.10;;
30247;SDS011;17063;50.892;4.702;2023-05-10T13:13:22;3.67;;;2.00;;
30247;SDS011;17063;50.892;4.702;2023-05-10T13:15:49;1.67;;;1.57;;
30247;SDS011;17063;50.892;4.702;2023-05-10T13:18:16;2.30;;;1.83;;
30247;SDS011;17063;50.892;4.702;2023-05-10T13:20:44;2.13;;;1.93;;
30247;SDS011;17063;50.892;4.702;2023-05-10T13:23:11;3.13;;;2.10;;
30247;SDS011;17063;50.892;4.702;2023-05-10T13:25:38;2.33;;;2.10;;
30247;SDS011;17063;50.892;4.702;2023-05-10T13:28:05;2.40;;;2.20;;
30247;SDS011;17063;50.892;4.702;2023-05-10T13:30:32;2.43;;;2.10;;
30247;SDS011;17063;50.892;4.702;2023-05-10T13:33:00;2.53;;;2.03;;
30247;SDS011;17063;50.892;4.702;2023-05-10T13:35:27;6.10;;;2.50;;
30247;SDS011;17063;50.892;4.702;2023-05-10T13:37:56;3.00;;;2.33;;
30247;SDS011;17063;50.892;4.702;2023-05-10T13:40:24;2.10;;;1.90;;
30247;SDS011;17063;50.892;4.702;2023-05-10T13:42:50;3.07;;;2.13;;
30247;SDS011;17063;50.892;4.702;2023-05-10T13:45:17;2.40;;;2.20;;
30247;SDS011;17063;50.892;4.702;2023-05-10T13:47:44;2.83;;;2.13;;
30247;SDS011;17063;50.892;4.702;2023-05-10T13:50:12;2.83;;;2.20;;
30247;SDS011;17063;50.892;4.702;2023-05-10T13:52:39;2.40;;;2.20;;
30247;SDS011;17063;50.892;4.702;2023-05-10T13:55:05;2.03;;;1.83;;
30247;SDS011;17063;50.892;4.702;2023-05-10T13:57:33;3.53;;;2.40;;
30247;SDS011;17063;50.892;4.702;2023-05-10T14:00:02;7.03;;;2.50;;
30247;SDS011;17063;50.892;4.702;2023-05-10T14:02:33;5.03;;;2.20;;
30247;SDS011;17063;50.892;4.702;2023-05-10T14:05:01;5.97;;;2.60;;
30247;SDS011;17063;50.892;4.702;2023-05-10T14:07:31;10.13;;;3.10;;
30247;SDS011;17063;50.892;4.702;2023-05-10T14:09:58;2.10;;;1.80;;
30247;SDS011;17063;50.892;4.702;2023-05-10T14:12:29;2.00;;;1.87;;
30247;SDS011;17063;50.892;4.702;2023-05-10T14:14:56;2.27;;;2.07;;
30247;SDS011;17063;50.892;4.702;2023-05-10T14:17:24;2.50;;;2.00;;
30247;SDS011;17063;50.892;4.702;2023-05-10T14:19:52;2.57;;;1.83;;
30247;SDS011;17063;50.892;4.702;2023-05-10T14:22:19;5.13;;;1.93;;
30247;SDS011;17063;50.892;4.702;2023-05-10T14:24:46;3.20;;;1.93;;
30247;SDS011;17063;50.892;4.702;2023-05-10T14:27:18;2.20;;;2.00;;
30247;SDS011;17063;50.892;4.702;2023-05-10T14:29:46;4.33;;;2.20;;
30247;SDS011;17063;50.892;4.702;2023-05-10T14:32:14;4.93;;;2.57;;
30247;SDS011;17063;50.892;4.702;2023-05-10T14:34:41;2.37;;;2.17;;
30247;SDS011;17063;50.892;4.702;2023-05-10T14:37:09;2.97;;;2.30;;
30247;SDS011;17063;50.892;4.702;2023-05-10T14:39:37;3.23;;;2.00;;
30247;SDS011;17063;50.892;4.702;2023-05-10T14:42:07;2.87;;;2.57;;
30247;SDS011;17063;50.892;4.702;2023-05-10T14:44:36;2.37;;;2.17;;
30247;SDS011;17063;50.892;4.702;2023-05-10T14:47:03;3.70;;;2.47;;
30247;SDS011;17063;50.892;4.702;2023-05-10T14:49:31;3.63;;;2.63;;
30247;SDS011;17063;50.892;4.702;2023-05-10T14:51:58;3.77;;;2.70;;
30247;SDS011;17063;50.892;4.702;2023-05-10T14:54:28;2.73;;;2.50;;
30247;SDS011;17063;50.892;4.702;2023-05-10T14:56:55;3.57;;;2.40;;
30247;SDS011;17063;50.892;4.702;2023-05-10T14:59:21;6.00;;;2.93;;
30247;SDS011;17063;50.892;4.702;2023-05-10T15:01:50;4.30;;;2.77;;
30247;SDS011;17063;50.892;4.702;2023-05-10T15:04:18;2.80;;;2.53;;
30247;SDS011;17063;50.892;4.702;2023-05-10T15:06:45;3.47;;;2.60;;
30247;SDS011;17063;50.892;4.702;2023-05-10T15:09:12;4.20;;;2.70;;
30247;SDS011;17063;50.892;4.702;2023-05-10T15:11:39;4.73;;;2.53;;
30247;SDS011;17063;50.892;4.702;2023-05-10T15:14:06;3.13;;;2.83;;
30247;SDS011;17063;50.892;4.702;2023-05-10T15:16:32;4.17;;;2.87;;
30247;SDS011;17063;50.892;4.702;2023-05-10T15:19:01;5.53;;;3.97;;
30247;SDS011;17063;50.892;4.702;2023-05-10T15:21:29;6.27;;;4.40;;
30247;SDS011;17063;50.892;4.702;2023-05-10T15:24:01;7.97;;;4.23;;
30247;SDS011;17063;50.892;4.702;2023-05-10T15:26:28;6.73;;;4.70;;
30247;SDS011;17063;50.892;4.702;2023-05-10T15:28:55;6.67;;;4.80;;
30247;SDS011;17063;50.892;4.702;2023-05-10T15:31:22;6.57;;;4.57;;
30247;SDS011;17063;50.892;4.702;2023-05-10T15:33:49;7.20;;;4.97;;
30247;SDS011;17063;50.892;4.702;2023-05-10T15:36:15;10.20;;;5.00;;
30247;SDS011;17063;50.892;4.702;2023-05-10T15:38:44;6.17;;;4.77;;
30247;SDS011;17063;50.892;4.702;2023-05-10T15:41:11;7.87;;;4.33;;
30247;SDS011;17063;50.892;4.702;2023-05-10T15:43:38;9.77;;;5.80;;
30247;SDS011;17063;50.892;4.702;2023-05-10T15:46:04;8.77;;;6.07;;
30247;SDS011;17063;50.892;4.702;2023-05-10T15:48:32;10.07;;;6.10;;
30247;SDS011;17063;50.892;4.702;2023-05-10T15:50:59;7.93;;;5.67;;
30247;SDS011;17063;50.892;4.702;2023-05-10T15:53:26;15.57;;;6.03;;
30247;SDS011;17063;50.892;4.702;2023-05-10T15:55:53;9.37;;;5.37;;
30247;SDS011;17063;50.892;4.702;2023-05-10T15:58:20;9.17;;;4.43;;
30247;SDS011;17063;50.892;4.702;2023-05-10T16:00:47;6.30;;;4.10;;
30247;SDS011;17063;50.892;4.702;2023-05-10T16:03:15;8.83;;;4.30;;
30247;SDS011;17063;50.892;4.702;2023-05-10T16:05:42;7.37;;;4.10;;
30247;SDS011;17063;50.892;4.702;2023-05-10T16:08:09;10.93;;;3.70;;